sensor_id;sensor_type;location;lat;lon;timestamp;P1;durP1;ratioP1;P2;durP2;ratioP2
15104;SDS011;7653;48.994;9.212;2022-08-05T00:02:22;3.77;;;2.73;;
15104;SDS011;7653;48.994;9.212;2022-08-05T00:04:48;5.23;;;2.83;;
15104;SDS011;7653;48.994;9.212;2022-08-05T00:07:14;3.00;;;2.80;;
15104;SDS011;7653;48.994;9.212;2022-08-05T00:09:40;3.37;;;2.50;;
15104;SDS011;7653;48.994;9.212;2022-08-05T00:12:05;3.83;;;2.67;;
15104;SDS011;7653;48.994;9.212;2022-08-05T00:14:31;4.27;;;2.67;;
15104;SDS011;7653;48.994;9.212;2022-08-05T00:16:57;2.93;;;2.47;;
15104;SDS011;7653;48.994;9.212;2022-08-05T00:19:25;3.47;;;2.77;;
15104;SDS011;7653;48.994;9.212;2022-08-05T00:21:51;4.87;;;2.80;;
15104;SDS011;7653;48.994;9.212;2022-08-05T00:24:17;5.77;;;2.80;;
15104;SDS011;7653;48.994;9.212;2022-08-05T00:26:42;3.93;;;2.70;;
15104;SDS011;7653;48.994;9.212;2022-08-05T00:29:08;4.30;;;2.80;;
15104;SDS011;7653;48.994;9.212;2022-08-05T00:31:33;4.47;;;2.80;;
15104;SDS011;7653;48.994;9.212;2022-08-05T00:34:00;3.57;;;2.97;;
15104;SDS011;7653;48.994;9.212;2022-08-05T00:36:26;3.33;;;2.90;;
15104;SDS011;7653;48.994;9.212;2022-08-05T00:38:52;4.60;;;2.73;;
15104;SDS011;7653;48.994;9.212;2022-08-05T00:44:24;2.97;;;2.73;;
15104;SDS011;7653;48.994;9.212;2022-08-05T00:50:15;3.57;;;2.97;;
15104;SDS011;7653;48.994;9.212;2022-08-05T00:52:58;4.23;;;3.10;;
15104;SDS011;7653;48.994;9.212;2022-08-05T00:55:44;2.93;;;2.70;;
15104;SDS011;7653;48.994;9.212;2022-08-05T01:04:57;3.70;;;2.90;;
15104;SDS011;7653;48.994;9.212;2022-08-05T01:07:51;6.30;;;3.03;;
15104;SDS011;7653;48.994;9.212;2022-08-05T01:16:09;4.53;;;2.40;;
15104;SDS011;7653;48.994;9.212;2022-08-05T01:18:58;2.77;;;2.30;;
15104;SDS011;7653;48.994;9.212;2022-08-05T01:28:39;4.70;;;2.17;;
15104;SDS011;7653;48.994;9.212;2022-08-05T01:31:44;6.70;;;2.47;;
15104;SDS011;7653;48.994;9.212;2022-08-05T01:34:27;4.40;;;2.63;;
15104;SDS011;7653;48.994;9.212;2022-08-05T01:37:17;3.27;;;2.40;;
15104;SDS011;7653;48.994;9.212;2022-08-05T01:40:02;5.87;;;2.33;;
15104;SDS011;7653;48.994;9.212;2022-08-05T01:42:32;5.70;;;2.43;;
15104;SDS011;7653;48.994;9.212;2022-08-05T01:45:07;3.23;;;2.30;;
15104;SDS011;7653;48.994;9.212;2022-08-05T01:47:33;5.73;;;2.43;;
15104;SDS011;7653;48.994;9.212;2022-08-05T01:50:04;3.70;;;2.00;;
15104;SDS011;7653;48.994;9.212;2022-08-05T01:52:32;5.47;;;2.43;;
15104;SDS011;7653;48.994;9.212;2022-08-05T01:55:03;5.00;;;2.30;;
15104;SDS011;7653;48.994;9.212;2022-08-05T01:57:32;2.97;;;2.23;;
15104;SDS011;7653;48.994;9.212;2022-08-05T02:00:03;6.57;;;2.13;;
15104;SDS011;7653;48.994;9.212;2022-08-05T02:02:30;3.47;;;2.40;;
15104;SDS011;7653;48.994;9.212;2022-08-05T02:04:59;7.70;;;2.33;;
15104;SDS011;7653;48.994;9.212;2022-08-05T02:07:27;3.97;;;2.40;;
15104;SDS011;7653;48.994;9.212;2022-08-05T02:09:54;5.83;;;2.80;;
15104;SDS011;7653;48.994;9.212;2022-08-05T02:12:23;6.50;;;2.30;;
15104;SDS011;7653;48.994;9.212;2022-08-05T02:14:56;4.40;;;2.53;;
15104;SDS011;7653;48.994;9.212;2022-08-05T02:17:32;7.30;;;2.50;;
15104;SDS011;7653;48.994;9.212;2022-08-05T02:20:03;6.40;;;2.70;;
15104;SDS011;7653;48.994;9.212;2022-08-05T02:22:39;6.27;;;2.40;;
15104;SDS011;7653;48.994;9.212;2022-08-05T02:25:14;4.80;;;3.03;;
15104;SDS011;7653;48.994;9.212;2022-08-05T02:27:43;5.93;;;2.40;;
15104;SDS011;7653;48.994;9.212;2022-08-05T02:30:13;5.03;;;2.60;;
15104;SDS011;7653;48.994;9.212;2022-08-05T02:32:40;5.33;;;2.60;;
15104;SDS011;7653;48.994;9.212;2022-08-05T02:35:15;5.30;;;2.47;;
15104;SDS011;7653;48.994;9.212;2022-08-05T02:37:44;6.37;;;2.80;;
15104;SDS011;7653;48.994;9.212;2022-08-05T02:40:12;10.60;;;2.67;;
15104;SDS011;7653;48.994;9.212;2022-08-05T02:42:40;9.37;;;2.63;;
15104;SDS011;7653;48.994;9.212;2022-08-05T02:45:07;5.10;;;2.60;;
15104;SDS011;7653;48.994;9.212;2022-08-05T02:47:34;2.90;;;2.20;;
15104;SDS011;7653;48.994;9.212;2022-08-05T02:50:02;5.53;;;2.40;;
15104;SDS011;7653;48.994;9.212;2022-08-05T02:52:30;5.43;;;2.87;;
15104;SDS011;7653;48.994;9.212;2022-08-05T02:54:57;7.23;;;2.50;;
15104;SDS011;7653;48.994;9.212;2022-08-05T02:57:29;4.50;;;2.73;;
15104;SDS011;7653;48.994;9.212;2022-08-05T02:59:56;4.93;;;2.80;;
15104;SDS011;7653;48.994;9.212;2022-08-05T03:02:23;8.47;;;2.90;;
15104;SDS011;7653;48.994;9.212;2022-08-05T03:04:53;3.53;;;2.60;;
15104;SDS011;7653;48.994;9.212;2022-08-05T03:07:21;4.77;;;2.70;;
15104;SDS011;7653;48.994;9.212;2022-08-05T03:09:48;5.23;;;2.67;;
15104;SDS011;7653;48.994;9.212;2022-08-05T03:12:34;3.30;;;2.60;;
15104;SDS011;7653;48.994;9.212;2022-08-05T03:15:05;6.17;;;2.60;;
15104;SDS011;7653;48.994;9.212;2022-08-05T03:18:01;4.40;;;2.77;;
15104;SDS011;7653;48.994;9.212;2022-08-05T03:20:27;5.83;;;2.90;;
15104;SDS011;7653;48.994;9.212;2022-08-05T03:23:23;3.97;;;2.83;;
15104;SDS011;7653;48.994;9.212;2022-08-05T03:25:49;6.43;;;2.90;;
15104;SDS011;7653;48.994;9.212;2022-08-05T03:28:15;3.80;;;2.70;;
15104;SDS011;7653;48.994;9.212;2022-08-05T03:30:42;5.30;;;2.80;;
15104;SDS011;7653;48.994;9.212;2022-08-05T03:33:08;10.50;;;3.10;;
15104;SDS011;7653;48.994;9.212;2022-08-05T03:35:34;8.13;;;3.10;;
15104;SDS011;7653;48.994;9.212;2022-08-05T03:38:00;3.93;;;2.33;;
15104;SDS011;7653;48.994;9.212;2022-08-05T03:40:26;6.40;;;2.80;;
15104;SDS011;7653;48.994;9.212;2022-08-05T03:42:52;4.40;;;3.00;;
15104;SDS011;7653;48.994;9.212;2022-08-05T03:45:18;4.07;;;2.90;;
15104;SDS011;7653;48.994;9.212;2022-08-05T03:47:44;4.40;;;2.80;;
15104;SDS011;7653;48.994;9.212;2022-08-05T03:50:10;7.50;;;2.90;;
15104;SDS011;7653;48.994;9.212;2022-08-05T03:52:37;4.17;;;2.90;;
15104;SDS011;7653;48.994;9.212;2022-08-05T03:55:20;5.87;;;2.57;;
15104;SDS011;7653;48.994;9.212;2022-08-05T03:57:56;4.80;;;2.87;;
15104;SDS011;7653;48.994;9.212;2022-08-05T04:00:22;5.93;;;2.67;;
15104;SDS011;7653;48.994;9.212;2022-08-05T04:02:53;4.27;;;3.00;;
15104;SDS011;7653;48.994;9.212;2022-08-05T04:05:22;5.80;;;2.93;;
15104;SDS011;7653;48.994;9.212;2022-08-05T04:07:48;6.77;;;3.13;;
15104;SDS011;7653;48.994;9.212;2022-08-05T04:10:15;6.73;;;3.10;;
15104;SDS011;7653;48.994;9.212;2022-08-05T04:12:41;7.13;;;3.70;;
15104;SDS011;7653;48.994;9.212;2022-08-05T04:15:08;6.90;;;3.20;;
15104;SDS011;7653;48.994;9.212;2022-08-05T04:17:35;11.30;;;3.20;;
15104;SDS011;7653;48.994;9.212;2022-08-05T04:20:01;12.97;;;3.47;;
15104;SDS011;7653;48.994;9.212;2022-08-05T04:22:28;9.97;;;4.10;;
15104;SDS011;7653;48.994;9.212;2022-08-05T04:24:53;9.57;;;3.73;;
15104;SDS011;7653;48.994;9.212;2022-08-05T04:27:19;9.93;;;3.77;;
15104;SDS011;7653;48.994;9.212;2022-08-05T04:29:44;9.50;;;3.67;;
15104;SDS011;7653;48.994;9.212;2022-08-05T04:32:10;5.60;;;3.20;;
15104;SDS011;7653;48.994;9.212;2022-08-05T04:34:38;10.43;;;3.67;;
15104;SDS011;7653;48.994;9.212;2022-08-05T04:37:04;5.93;;;3.30;;
15104;SDS011;7653;48.994;9.212;2022-08-05T04:39:29;8.47;;;3.40;;
15104;SDS011;7653;48.994;9.212;2022-08-05T04:41:56;10.97;;;3.30;;
15104;SDS011;7653;48.994;9.212;2022-08-05T04:44:21;6.43;;;2.87;;
15104;SDS011;7653;48.994;9.212;2022-08-05T04:46:47;12.47;;;3.13;;
15104;SDS011;7653;48.994;9.212;2022-08-05T04:49:12;4.33;;;2.70;;
15104;SDS011;7653;48.994;9.212;2022-08-05T04:51:38;6.50;;;3.50;;
15104;SDS011;7653;48.994;9.212;2022-08-05T04:54:04;6.77;;;3.47;;
15104;SDS011;7653;48.994;9.212;2022-08-05T04:56:29;6.63;;;3.20;;
15104;SDS011;7653;48.994;9.212;2022-08-05T04:58:55;8.07;;;3.57;;
15104;SDS011;7653;48.994;9.212;2022-08-05T05:01:21;3.90;;;3.07;;
15104;SDS011;7653;48.994;9.212;2022-08-05T05:03:46;5.50;;;2.93;;
15104;SDS011;7653;48.994;9.212;2022-08-05T05:06:12;4.93;;;3.10;;
15104;SDS011;7653;48.994;9.212;2022-08-05T05:08:38;7.27;;;3.30;;
15104;SDS011;7653;48.994;9.212;2022-08-05T05:11:04;4.57;;;3.20;;
15104;SDS011;7653;48.994;9.212;2022-08-05T05:13:30;4.03;;;3.07;;
15104;SDS011;7653;48.994;9.212;2022-08-05T05:15:56;7.73;;;3.30;;
15104;SDS011;7653;48.994;9.212;2022-08-05T05:18:22;5.67;;;3.37;;
15104;SDS011;7653;48.994;9.212;2022-08-05T05:20:48;7.77;;;3.60;;
15104;SDS011;7653;48.994;9.212;2022-08-05T05:23:13;5.10;;;3.60;;
15104;SDS011;7653;48.994;9.212;2022-08-05T05:25:40;6.67;;;3.53;;
15104;SDS011;7653;48.994;9.212;2022-08-05T05:28:07;4.87;;;3.30;;
15104;SDS011;7653;48.994;9.212;2022-08-05T05:30:33;4.57;;;3.50;;
15104;SDS011;7653;48.994;9.212;2022-08-05T05:33:00;6.70;;;3.73;;
15104;SDS011;7653;48.994;9.212;2022-08-05T05:35:27;6.10;;;3.20;;
15104;SDS011;7653;48.994;9.212;2022-08-05T05:37:57;4.97;;;3.70;;
15104;SDS011;7653;48.994;9.212;2022-08-05T05:40:24;6.40;;;3.70;;
15104;SDS011;7653;48.994;9.212;2022-08-05T05:42:51;6.73;;;3.67;;
15104;SDS011;7653;48.994;9.212;2022-08-05T05:45:18;5.00;;;3.20;;
15104;SDS011;7653;48.994;9.212;2022-08-05T05:47:44;5.40;;;3.10;;
15104;SDS011;7653;48.994;9.212;2022-08-05T05:50:11;5.53;;;3.10;;
15104;SDS011;7653;48.994;9.212;2022-08-05T05:52:38;6.87;;;3.30;;
15104;SDS011;7653;48.994;9.212;2022-08-05T05:55:06;8.37;;;3.50;;
15104;SDS011;7653;48.994;9.212;2022-08-05T05:57:42;6.90;;;3.27;;
15104;SDS011;7653;48.994;9.212;2022-08-05T06:00:11;5.63;;;3.23;;
15104;SDS011;7653;48.994;9.212;2022-08-05T06:02:47;5.40;;;3.20;;
15104;SDS011;7653;48.994;9.212;2022-08-05T06:05:15;4.87;;;2.77;;
15104;SDS011;7653;48.994;9.212;2022-08-05T06:07:50;6.07;;;3.33;;
15104;SDS011;7653;48.994;9.212;2022-08-05T06:10:15;6.50;;;2.93;;
15104;SDS011;7653;48.994;9.212;2022-08-05T06:12:41;6.83;;;2.97;;
15104;SDS011;7653;48.994;9.212;2022-08-05T06:15:07;10.33;;;2.97;;
15104;SDS011;7653;48.994;9.212;2022-08-05T06:17:33;6.60;;;3.07;;
15104;SDS011;7653;48.994;9.212;2022-08-05T06:19:59;7.27;;;2.93;;
15104;SDS011;7653;48.994;9.212;2022-08-05T06:22:25;6.88;;;2.92;;
15104;SDS011;7653;48.994;9.212;2022-08-05T06:24:53;4.07;;;2.70;;
15104;SDS011;7653;48.994;9.212;2022-08-05T06:27:19;6.83;;;3.00;;
15104;SDS011;7653;48.994;9.212;2022-08-05T06:29:45;5.00;;;2.47;;
15104;SDS011;7653;48.994;9.212;2022-08-05T06:32:11;5.72;;;2.97;;
15104;SDS011;7653;48.994;9.212;2022-08-05T06:34:37;8.00;;;3.40;;
15104;SDS011;7653;48.994;9.212;2022-08-05T06:37:03;4.50;;;2.70;;
15104;SDS011;7653;48.994;9.212;2022-08-05T06:39:28;3.80;;;2.55;;
15104;SDS011;7653;48.994;9.212;2022-08-05T06:41:58;7.30;;;2.70;;
15104;SDS011;7653;48.994;9.212;2022-08-05T06:44:32;3.55;;;2.92;;
15104;SDS011;7653;48.994;9.212;2022-08-05T06:47:21;5.40;;;3.08;;
15104;SDS011;7653;48.994;9.212;2022-08-05T06:49:47;4.97;;;2.70;;
15104;SDS011;7653;48.994;9.212;2022-08-05T06:52:12;3.53;;;2.65;;
15104;SDS011;7653;48.994;9.212;2022-08-05T06:54:38;3.80;;;2.33;;
15104;SDS011;7653;48.994;9.212;2022-08-05T06:57:04;4.07;;;2.60;;
15104;SDS011;7653;48.994;9.212;2022-08-05T06:59:29;5.13;;;2.67;;
15104;SDS011;7653;48.994;9.212;2022-08-05T07:01:55;4.50;;;2.20;;
15104;SDS011;7653;48.994;9.212;2022-08-05T07:04:21;4.23;;;2.50;;
15104;SDS011;7653;48.994;9.212;2022-08-05T07:06:46;3.83;;;2.30;;
15104;SDS011;7653;48.994;9.212;2022-08-05T07:09:12;2.92;;;2.00;;
15104;SDS011;7653;48.994;9.212;2022-08-05T07:11:37;4.20;;;2.40;;
15104;SDS011;7653;48.994;9.212;2022-08-05T07:14:04;2.55;;;2.30;;
15104;SDS011;7653;48.994;9.212;2022-08-05T07:16:49;4.03;;;2.40;;
15104;SDS011;7653;48.994;9.212;2022-08-05T07:19:15;4.93;;;2.73;;
15104;SDS011;7653;48.994;9.212;2022-08-05T07:21:48;3.70;;;2.37;;
15104;SDS011;7653;48.994;9.212;2022-08-05T07:24:14;6.45;;;2.30;;
15104;SDS011;7653;48.994;9.212;2022-08-05T07:26:41;2.80;;;2.50;;
15104;SDS011;7653;48.994;9.212;2022-08-05T07:29:07;5.35;;;2.17;;
15104;SDS011;7653;48.994;9.212;2022-08-05T07:31:34;2.30;;;2.10;;
15104;SDS011;7653;48.994;9.212;2022-08-05T07:34:01;2.95;;;2.22;;
15104;SDS011;7653;48.994;9.212;2022-08-05T07:36:42;2.50;;;1.80;;
15104;SDS011;7653;48.994;9.212;2022-08-05T07:39:08;4.07;;;2.38;;
15104;SDS011;7653;48.994;9.212;2022-08-05T07:41:44;3.03;;;1.83;;
15104;SDS011;7653;48.994;9.212;2022-08-05T07:44:20;2.30;;;1.77;;
15104;SDS011;7653;48.994;9.212;2022-08-05T07:46:46;1.92;;;1.65;;
15104;SDS011;7653;48.994;9.212;2022-08-05T07:49:12;4.00;;;2.00;;
15104;SDS011;7653;48.994;9.212;2022-08-05T07:51:41;3.47;;;1.77;;
15104;SDS011;7653;48.994;9.212;2022-08-05T07:54:33;2.03;;;1.60;;
15104;SDS011;7653;48.994;9.212;2022-08-05T07:57:02;5.13;;;1.80;;
15104;SDS011;7653;48.994;9.212;2022-08-05T07:59:43;2.80;;;1.90;;
15104;SDS011;7653;48.994;9.212;2022-08-05T08:02:09;3.00;;;2.00;;
15104;SDS011;7653;48.994;9.212;2022-08-05T08:04:35;3.53;;;1.92;;
15104;SDS011;7653;48.994;9.212;2022-08-05T08:07:01;3.25;;;2.00;;
15104;SDS011;7653;48.994;9.212;2022-08-05T08:09:27;3.67;;;1.97;;
15104;SDS011;7653;48.994;9.212;2022-08-05T08:11:52;2.20;;;2.00;;
15104;SDS011;7653;48.994;9.212;2022-08-05T08:14:18;4.00;;;2.00;;
15104;SDS011;7653;48.994;9.212;2022-08-05T08:16:44;3.15;;;2.17;;
15104;SDS011;7653;48.994;9.212;2022-08-05T08:19:21;4.47;;;2.40;;
15104;SDS011;7653;48.994;9.212;2022-08-05T08:21:46;4.10;;;2.17;;
15104;SDS011;7653;48.994;9.212;2022-08-05T08:24:16;2.92;;;2.42;;
15104;SDS011;7653;48.994;9.212;2022-08-05T08:26:41;3.38;;;2.13;;
15104;SDS011;7653;48.994;9.212;2022-08-05T08:29:08;3.13;;;2.25;;
15104;SDS011;7653;48.994;9.212;2022-08-05T08:31:33;2.87;;;2.10;;
15104;SDS011;7653;48.994;9.212;2022-08-05T08:34:06;2.83;;;1.90;;
15104;SDS011;7653;48.994;9.212;2022-08-05T08:36:42;2.50;;;2.25;;
15104;SDS011;7653;48.994;9.212;2022-08-05T08:39:09;2.47;;;2.00;;
15104;SDS011;7653;48.994;9.212;2022-08-05T08:41:58;2.20;;;1.90;;
15104;SDS011;7653;48.994;9.212;2022-08-05T08:44:31;3.10;;;2.03;;
15104;SDS011;7653;48.994;9.212;2022-08-05T08:46:57;5.00;;;2.25;;
15104;SDS011;7653;48.994;9.212;2022-08-05T08:50:06;5.43;;;2.05;;
15104;SDS011;7653;48.994;9.212;2022-08-05T08:52:35;3.53;;;2.00;;
15104;SDS011;7653;48.994;9.212;2022-08-05T08:55:01;4.65;;;2.00;;
15104;SDS011;7653;48.994;9.212;2022-08-05T08:57:28;2.35;;;2.13;;
15104;SDS011;7653;48.994;9.212;2022-08-05T08:59:53;4.38;;;1.90;;
15104;SDS011;7653;48.994;9.212;2022-08-05T09:02:21;3.20;;;2.08;;
15104;SDS011;7653;48.994;9.212;2022-08-05T09:04:48;3.10;;;2.00;;
15104;SDS011;7653;48.994;9.212;2022-08-05T09:07:14;2.47;;;2.25;;
15104;SDS011;7653;48.994;9.212;2022-08-05T09:12:42;3.63;;;1.95;;
15104;SDS011;7653;48.994;9.212;2022-08-05T09:15:08;2.80;;;2.13;;
15104;SDS011;7653;48.994;9.212;2022-08-05T09:18:11;2.30;;;2.10;;
15104;SDS011;7653;48.994;9.212;2022-08-05T09:20:37;3.00;;;2.08;;
15104;SDS011;7653;48.994;9.212;2022-08-05T09:23:07;3.63;;;2.00;;
15104;SDS011;7653;48.994;9.212;2022-08-05T09:25:37;3.42;;;1.90;;
15104;SDS011;7653;48.994;9.212;2022-08-05T09:28:08;2.58;;;1.80;;
15104;SDS011;7653;48.994;9.212;2022-08-05T09:30:53;2.10;;;1.75;;
15104;SDS011;7653;48.994;9.212;2022-08-05T09:33:20;2.47;;;1.80;;
15104;SDS011;7653;48.994;9.212;2022-08-05T09:39:03;2.22;;;1.52;;
15104;SDS011;7653;48.994;9.212;2022-08-05T09:42:21;2.40;;;1.92;;
15104;SDS011;7653;48.994;9.212;2022-08-05T09:44:48;2.30;;;2.10;;
15104;SDS011;7653;48.994;9.212;2022-08-05T09:47:19;2.47;;;2.20;;
15104;SDS011;7653;48.994;9.212;2022-08-05T09:49:50;2.85;;;2.00;;
15104;SDS011;7653;48.994;9.212;2022-08-05T09:55:11;3.05;;;1.85;;
15104;SDS011;7653;48.994;9.212;2022-08-05T09:57:40;2.30;;;2.10;;
15104;SDS011;7653;48.994;9.212;2022-08-05T10:00:12;3.05;;;2.13;;
15104;SDS011;7653;48.994;9.212;2022-08-05T10:02:49;2.08;;;1.88;;
15104;SDS011;7653;48.994;9.212;2022-08-05T10:05:19;4.18;;;2.10;;
15104;SDS011;7653;48.994;9.212;2022-08-05T10:07:57;2.40;;;1.95;;
15104;SDS011;7653;48.994;9.212;2022-08-05T10:10:36;3.03;;;1.85;;
15104;SDS011;7653;48.994;9.212;2022-08-05T10:13:10;3.88;;;1.90;;
15104;SDS011;7653;48.994;9.212;2022-08-05T10:15:40;2.67;;;2.00;;
15104;SDS011;7653;48.994;9.212;2022-08-05T10:20:40;2.22;;;2.00;;
15104;SDS011;7653;48.994;9.212;2022-08-05T10:23:13;3.10;;;2.00;;
15104;SDS011;7653;48.994;9.212;2022-08-05T10:25:42;2.50;;;1.80;;
15104;SDS011;7653;48.994;9.212;2022-08-05T10:28:08;2.92;;;1.88;;
15104;SDS011;7653;48.994;9.212;2022-08-05T10:30:35;3.03;;;2.10;;
15104;SDS011;7653;48.994;9.212;2022-08-05T10:33:22;2.55;;;2.15;;
15104;SDS011;7653;48.994;9.212;2022-08-05T10:35:51;2.47;;;2.28;;
15104;SDS011;7653;48.994;9.212;2022-08-05T10:38:18;4.30;;;1.80;;
15104;SDS011;7653;48.994;9.212;2022-08-05T10:46:07;2.70;;;2.17;;
15104;SDS011;7653;48.994;9.212;2022-08-05T10:48:36;4.57;;;2.55;;
15104;SDS011;7653;48.994;9.212;2022-08-05T10:51:14;2.45;;;2.25;;
15104;SDS011;7653;48.994;9.212;2022-08-05T10:53:52;2.67;;;2.13;;
15104;SDS011;7653;48.994;9.212;2022-08-05T10:56:23;2.92;;;1.98;;
15104;SDS011;7653;48.994;9.212;2022-08-05T11:01:35;2.20;;;2.00;;
15104;SDS011;7653;48.994;9.212;2022-08-05T11:04:10;2.50;;;2.00;;
15104;SDS011;7653;48.994;9.212;2022-08-05T11:09:43;2.10;;;1.90;;
15104;SDS011;7653;48.994;9.212;2022-08-05T11:17:41;2.40;;;2.10;;
15104;SDS011;7653;48.994;9.212;2022-08-05T11:20:46;2.30;;;2.10;;
15104;SDS011;7653;48.994;9.212;2022-08-05T11:23:34;2.25;;;2.00;;
15104;SDS011;7653;48.994;9.212;2022-08-05T11:26:21;5.07;;;2.00;;
15104;SDS011;7653;48.994;9.212;2022-08-05T11:28:53;3.53;;;1.90;;
15104;SDS011;7653;48.994;9.212;2022-08-05T11:31:20;2.65;;;2.03;;
15104;SDS011;7653;48.994;9.212;2022-08-05T11:33:55;2.50;;;1.83;;
15104;SDS011;7653;48.994;9.212;2022-08-05T11:39:47;3.22;;;1.80;;
15104;SDS011;7653;48.994;9.212;2022-08-05T11:42:15;5.22;;;2.35;;
15104;SDS011;7653;48.994;9.212;2022-08-05T11:44:46;3.63;;;2.00;;
15104;SDS011;7653;48.994;9.212;2022-08-05T11:47:11;3.47;;;1.90;;
15104;SDS011;7653;48.994;9.212;2022-08-05T11:49:39;2.10;;;1.90;;
15104;SDS011;7653;48.994;9.212;2022-08-05T11:52:08;2.95;;;1.70;;
15104;SDS011;7653;48.994;9.212;2022-08-05T11:54:34;4.05;;;1.85;;
15104;SDS011;7653;48.994;9.212;2022-08-05T11:57:02;2.08;;;1.90;;
15104;SDS011;7653;48.994;9.212;2022-08-05T11:59:29;1.90;;;1.60;;
15104;SDS011;7653;48.994;9.212;2022-08-05T12:02:04;2.65;;;1.70;;
15104;SDS011;7653;48.994;9.212;2022-08-05T12:04:40;3.22;;;1.90;;
15104;SDS011;7653;48.994;9.212;2022-08-05T12:07:14;2.05;;;1.83;;
15104;SDS011;7653;48.994;9.212;2022-08-05T12:09:42;3.03;;;1.80;;
15104;SDS011;7653;48.994;9.212;2022-08-05T12:12:25;1.90;;;1.70;;
15104;SDS011;7653;48.994;9.212;2022-08-05T12:14:54;2.13;;;1.83;;
15104;SDS011;7653;48.994;9.212;2022-08-05T12:17:20;2.47;;;1.60;;
15104;SDS011;7653;48.994;9.212;2022-08-05T12:19:51;3.92;;;2.05;;
15104;SDS011;7653;48.994;9.212;2022-08-05T12:22:19;2.25;;;1.50;;
15104;SDS011;7653;48.994;9.212;2022-08-05T12:24:49;2.53;;;1.83;;
15104;SDS011;7653;48.994;9.212;2022-08-05T12:27:24;2.55;;;1.70;;
15104;SDS011;7653;48.994;9.212;2022-08-05T12:30:01;2.30;;;1.80;;
15104;SDS011;7653;48.994;9.212;2022-08-05T12:32:34;1.52;;;1.40;;
15104;SDS011;7653;48.994;9.212;2022-08-05T12:35:11;2.33;;;1.70;;
15104;SDS011;7653;48.994;9.212;2022-08-05T12:37:41;2.45;;;1.60;;
15104;SDS011;7653;48.994;9.212;2022-08-05T12:40:08;1.60;;;1.50;;
15104;SDS011;7653;48.994;9.212;2022-08-05T12:43:01;2.10;;;1.70;;
15104;SDS011;7653;48.994;9.212;2022-08-05T12:45:26;2.45;;;1.50;;
15104;SDS011;7653;48.994;9.212;2022-08-05T12:47:52;2.85;;;1.48;;
15104;SDS011;7653;48.994;9.212;2022-08-05T12:50:18;3.15;;;1.60;;
15104;SDS011;7653;48.994;9.212;2022-08-05T12:52:56;2.75;;;1.60;;
15104;SDS011;7653;48.994;9.212;2022-08-05T12:55:27;1.83;;;1.60;;
15104;SDS011;7653;48.994;9.212;2022-08-05T12:57:57;3.08;;;1.65;;
15104;SDS011;7653;48.994;9.212;2022-08-05T13:00:25;2.17;;;1.58;;
15104;SDS011;7653;48.994;9.212;2022-08-05T13:02:55;3.22;;;1.77;;
15104;SDS011;7653;48.994;9.212;2022-08-05T13:05:22;2.72;;;1.48;;
15104;SDS011;7653;48.994;9.212;2022-08-05T13:07:49;1.90;;;1.70;;
15104;SDS011;7653;48.994;9.212;2022-08-05T13:10:17;2.30;;;1.85;;
15104;SDS011;7653;48.994;9.212;2022-08-05T13:12:43;2.00;;;1.50;;
15104;SDS011;7653;48.994;9.212;2022-08-05T13:15:12;1.83;;;1.65;;
15104;SDS011;7653;48.994;9.212;2022-08-05T13:17:40;2.03;;;1.70;;
15104;SDS011;7653;48.994;9.212;2022-08-05T13:20:22;1.67;;;1.52;;
15104;SDS011;7653;48.994;9.212;2022-08-05T13:22:58;2.65;;;1.65;;
15104;SDS011;7653;48.994;9.212;2022-08-05T13:25:23;2.20;;;1.60;;
15104;SDS011;7653;48.994;9.212;2022-08-05T13:27:50;1.60;;;1.50;;
15104;SDS011;7653;48.994;9.212;2022-08-05T13:30:19;1.65;;;1.45;;
15104;SDS011;7653;48.994;9.212;2022-08-05T13:32:47;1.75;;;1.60;;
15104;SDS011;7653;48.994;9.212;2022-08-05T13:35:13;1.60;;;1.50;;
15104;SDS011;7653;48.994;9.212;2022-08-05T13:37:40;2.45;;;1.50;;
15104;SDS011;7653;48.994;9.212;2022-08-05T13:40:06;1.70;;;1.60;;
15104;SDS011;7653;48.994;9.212;2022-08-05T13:42:32;1.73;;;1.63;;
15104;SDS011;7653;48.994;9.212;2022-08-05T13:44:58;1.63;;;1.52;;
15104;SDS011;7653;48.994;9.212;2022-08-05T13:47:24;1.73;;;1.63;;
15104;SDS011;7653;48.994;9.212;2022-08-05T13:49:50;1.98;;;1.70;;
15104;SDS011;7653;48.994;9.212;2022-08-05T13:54:43;3.25;;;1.60;;
15104;SDS011;7653;48.994;9.212;2022-08-05T13:57:10;2.05;;;1.88;;
15104;SDS011;7653;48.994;9.212;2022-08-05T13:59:37;1.60;;;1.50;;
15104;SDS011;7653;48.994;9.212;2022-08-05T14:02:04;2.65;;;1.92;;
15104;SDS011;7653;48.994;9.212;2022-08-05T14:04:33;1.65;;;1.42;;
15104;SDS011;7653;48.994;9.212;2022-08-05T14:07:21;2.55;;;1.58;;
15104;SDS011;7653;48.994;9.212;2022-08-05T14:09:55;1.90;;;1.70;;
15104;SDS011;7653;48.994;9.212;2022-08-05T14:12:23;1.80;;;1.70;;
15104;SDS011;7653;48.994;9.212;2022-08-05T14:14:49;1.67;;;1.50;;
15104;SDS011;7653;48.994;9.212;2022-08-05T14:17:17;3.83;;;1.80;;
15104;SDS011;7653;48.994;9.212;2022-08-05T14:19:54;6.28;;;1.95;;
15104;SDS011;7653;48.994;9.212;2022-08-05T14:22:20;3.25;;;2.10;;
15104;SDS011;7653;48.994;9.212;2022-08-05T14:24:46;2.42;;;2.05;;
15104;SDS011;7653;48.994;9.212;2022-08-05T14:27:12;3.10;;;2.25;;
15104;SDS011;7653;48.994;9.212;2022-08-05T14:29:38;2.38;;;2.17;;
15104;SDS011;7653;48.994;9.212;2022-08-05T14:32:06;4.75;;;2.38;;
15104;SDS011;7653;48.994;9.212;2022-08-05T14:34:34;2.65;;;2.30;;
15104;SDS011;7653;48.994;9.212;2022-08-05T14:36:59;4.32;;;2.40;;
15104;SDS011;7653;48.994;9.212;2022-08-05T14:39:27;3.00;;;2.67;;
15104;SDS011;7653;48.994;9.212;2022-08-05T14:42:01;2.33;;;2.10;;
15104;SDS011;7653;48.994;9.212;2022-08-05T14:44:28;3.08;;;2.30;;
15104;SDS011;7653;48.994;9.212;2022-08-05T14:47:06;3.63;;;2.58;;
15104;SDS011;7653;48.994;9.212;2022-08-05T14:49:32;4.93;;;2.30;;
15104;SDS011;7653;48.994;9.212;2022-08-05T14:51:57;3.50;;;2.20;;
15104;SDS011;7653;48.994;9.212;2022-08-05T14:54:23;3.45;;;2.55;;
15104;SDS011;7653;48.994;9.212;2022-08-05T14:56:51;3.75;;;2.05;;
15104;SDS011;7653;48.994;9.212;2022-08-05T14:59:17;3.67;;;1.98;;
15104;SDS011;7653;48.994;9.212;2022-08-05T15:01:48;3.08;;;2.50;;
15104;SDS011;7653;48.994;9.212;2022-08-05T15:04:16;3.13;;;2.40;;
15104;SDS011;7653;48.994;9.212;2022-08-05T15:06:42;2.65;;;2.38;;
15104;SDS011;7653;48.994;9.212;2022-08-05T15:09:09;2.80;;;2.60;;
15104;SDS011;7653;48.994;9.212;2022-08-05T15:11:37;4.03;;;2.17;;
15104;SDS011;7653;48.994;9.212;2022-08-05T15:14:05;3.40;;;2.55;;
15104;SDS011;7653;48.994;9.212;2022-08-05T15:16:31;2.47;;;1.90;;
15104;SDS011;7653;48.994;9.212;2022-08-05T15:18:57;3.65;;;2.10;;
15104;SDS011;7653;48.994;9.212;2022-08-05T15:21:22;5.72;;;2.72;;
15104;SDS011;7653;48.994;9.212;2022-08-05T15:23:52;2.65;;;2.40;;
15104;SDS011;7653;48.994;9.212;2022-08-05T15:26:18;2.50;;;2.30;;
15104;SDS011;7653;48.994;9.212;2022-08-05T15:28:44;2.35;;;2.08;;
15104;SDS011;7653;48.994;9.212;2022-08-05T15:31:17;2.80;;;2.60;;
15104;SDS011;7653;48.994;9.212;2022-08-05T15:33:49;2.80;;;2.45;;
15104;SDS011;7653;48.994;9.212;2022-08-05T15:36:17;3.15;;;2.67;;
15104;SDS011;7653;48.994;9.212;2022-08-05T15:38:45;3.20;;;2.50;;
15104;SDS011;7653;48.994;9.212;2022-08-05T15:41:12;3.38;;;2.00;;
15104;SDS011;7653;48.994;9.212;2022-08-05T15:43:49;3.30;;;2.50;;
15104;SDS011;7653;48.994;9.212;2022-08-05T15:46:23;4.28;;;2.60;;
15104;SDS011;7653;48.994;9.212;2022-08-05T15:49:10;4.20;;;2.60;;
15104;SDS011;7653;48.994;9.212;2022-08-05T15:51:41;3.95;;;2.65;;
15104;SDS011;7653;48.994;9.212;2022-08-05T15:54:16;3.00;;;2.60;;
15104;SDS011;7653;48.994;9.212;2022-08-05T15:56:45;4.80;;;2.83;;
15104;SDS011;7653;48.994;9.212;2022-08-05T15:59:20;3.78;;;2.60;;
15104;SDS011;7653;48.994;9.212;2022-08-05T16:01:53;2.65;;;2.45;;
15104;SDS011;7653;48.994;9.212;2022-08-05T16:04:59;2.30;;;2.10;;
15104;SDS011;7653;48.994;9.212;2022-08-05T16:07:26;4.25;;;2.60;;
15104;SDS011;7653;48.994;9.212;2022-08-05T16:09:57;3.10;;;2.50;;
15104;SDS011;7653;48.994;9.212;2022-08-05T16:12:23;2.75;;;2.53;;
15104;SDS011;7653;48.994;9.212;2022-08-05T16:14:53;3.30;;;2.42;;
15104;SDS011;7653;48.994;9.212;2022-08-05T16:17:38;2.20;;;2.00;;
15104;SDS011;7653;48.994;9.212;2022-08-05T16:20:07;2.30;;;2.15;;